sensor_id;sensor_type;location;lat;lon;timestamp;pressure;altitude;pressure_sealevel;temperature;humidity
77019;BME280;66044;53.142;17.962;2023-05-15T00:00:31;100726.55;;;14.36;52.19
77019;BME280;66044;53.142;17.962;2023-05-15T00:03:17;100719.48;;;14.30;52.24
77019;BME280;66044;53.142;17.962;2023-05-15T00:05:44;100721.33;;;14.31;52.20
77019;BME280;66044;53.142;17.962;2023-05-15T00:08:10;100719.75;;;14.30;52.25
77019;BME280;66044;53.142;17.962;2023-05-15T00:10:37;100711.67;;;14.27;52.12
77019;BME280;66044;53.142;17.962;2023-05-15T00:13:03;100712.34;;;14.26;52.01
77019;BME280;66044;53.142;17.962;2023-05-15T00:15:30;100709.98;;;14.24;52.08
77019;BME280;66044;53.142;17.962;2023-05-15T00:17:56;100711.09;;;14.23;52.07
77019;BME280;66044;53.142;17.962;2023-05-15T00:20:22;100703.20;;;14.22;52.08
77019;BME280;66044;53.142;17.962;2023-05-15T00:22:49;100696.70;;;14.22;51.96
77019;BME280;66044;53.142;17.962;2023-05-15T00:25:15;100693.15;;;14.22;51.90
77019;BME280;66044;53.142;17.962;2023-05-15T00:27:44;100685.51;;;14.21;51.97
77019;BME280;66044;53.142;17.962;2023-05-15T00:30:12;100684.58;;;14.21;52.06
77019;BME280;66044;53.142;17.962;2023-05-15T00:32:39;100685.52;;;14.22;52.19
77019;BME280;66044;53.142;17.962;2023-05-15T00:35:05;100686.75;;;14.21;52.08
77019;BME280;66044;53.142;17.962;2023-05-15T00:37:32;100686.11;;;14.20;52.36
77019;BME280;66044;53.142;17.962;2023-05-15T00:39:58;100682.56;;;14.20;52.22
77019;BME280;66044;53.142;17.962;2023-05-15T00:42:25;100677.00;;;14.21;52.10
77019;BME280;66044;53.142;17.962;2023-05-15T00:44:52;100670.30;;;14.21;51.89
77019;BME280;66044;53.142;17.962;2023-05-15T00:47:21;100668.85;;;14.22;51.91
77019;BME280;66044;53.142;17.962;2023-05-15T00:49:48;100663.70;;;14.23;51.78
77019;BME280;66044;53.142;17.962;2023-05-15T00:52:15;100663.16;;;14.23;51.58
77019;BME280;66044;53.142;17.962;2023-05-15T00:54:41;100665.60;;;14.25;51.58
77019;BME280;66044;53.142;17.962;2023-05-15T00:57:08;100663.16;;;14.26;51.69
77019;BME280;66044;53.142;17.962;2023-05-15T00:59:37;100659.88;;;14.27;52.00
77019;BME280;66044;53.142;17.962;2023-05-15T01:02:04;100655.34;;;14.28;52.28
77019;BME280;66044;53.142;17.962;2023-05-15T01:04:31;100652.56;;;14.26;52.33
77019;BME280;66044;53.142;17.962;2023-05-15T01:06:57;100652.57;;;14.29;52.14
77019;BME280;66044;53.142;17.962;2023-05-15T01:09:24;100649.65;;;14.30;52.10
77019;BME280;66044;53.142;17.962;2023-05-15T01:11:54;100649.46;;;14.31;51.93
77019;BME280;66044;53.142;17.962;2023-05-15T01:14:22;100650.23;;;14.34;51.79
77019;BME280;66044;53.142;17.962;2023-05-15T01:16:49;100646.09;;;14.35;51.80
77019;BME280;66044;53.142;17.962;2023-05-15T01:19:15;100647.62;;;14.38;51.62
77019;BME280;66044;53.142;17.962;2023-05-15T01:22:11;100647.54;;;14.40;51.72
77019;BME280;66044;53.142;17.962;2023-05-15T01:25:08;100652.55;;;14.44;51.71
77019;BME280;66044;53.142;17.962;2023-05-15T01:27:44;100648.52;;;14.46;51.50
77019;BME280;66044;53.142;17.962;2023-05-15T01:30:24;100652.98;;;14.49;51.57
77019;BME280;66044;53.142;17.962;2023-05-15T01:33:05;100653.56;;;14.50;51.64
77019;BME280;66044;53.142;17.962;2023-05-15T01:35:44;100661.45;;;14.51;51.44
77019;BME280;66044;53.142;17.962;2023-05-15T01:38:18;100664.73;;;14.49;51.33
77019;BME280;66044;53.142;17.962;2023-05-15T01:40:55;100676.98;;;14.48;51.37
77019;BME280;66044;53.142;17.962;2023-05-15T01:46:16;100636.36;;;14.48;51.12
77019;BME280;66044;53.142;17.962;2023-05-15T01:48:45;100634.34;;;14.51;51.34
77019;BME280;66044;53.142;17.962;2023-05-15T01:51:13;100661.58;;;14.53;51.53
77019;BME280;66044;53.142;17.962;2023-05-15T01:53:42;100646.66;;;14.53;51.39
77019;BME280;66044;53.142;17.962;2023-05-15T01:56:11;100624.85;;;14.55;51.34
77019;BME280;66044;53.142;17.962;2023-05-15T01:58:39;100632.66;;;14.55;51.38
77019;BME280;66044;53.142;17.962;2023-05-15T02:01:08;100626.96;;;14.56;51.13
77019;BME280;66044;53.142;17.962;2023-05-15T02:03:35;100628.63;;;14.58;51.09
77019;BME280;66044;53.142;17.962;2023-05-15T02:06:03;100624.88;;;14.60;51.17
77019;BME280;66044;53.142;17.962;2023-05-15T02:08:31;100615.98;;;14.63;51.06
77019;BME280;66044;53.142;17.962;2023-05-15T02:10:59;100602.59;;;14.64;50.83
77019;BME280;66044;53.142;17.962;2023-05-15T02:13:27;100602.77;;;14.66;50.68
77019;BME280;66044;53.142;17.962;2023-05-15T02:15:53;100599.08;;;14.68;50.69
77019;BME280;66044;53.142;17.962;2023-05-15T02:18:20;100597.75;;;14.70;51.00
77019;BME280;66044;53.142;17.962;2023-05-15T02:20:47;100588.05;;;14.71;50.85
77019;BME280;66044;53.142;17.962;2023-05-15T02:23:13;100576.49;;;14.73;50.64
77019;BME280;66044;53.142;17.962;2023-05-15T02:28:29;100592.05;;;14.67;51.58
77019;BME280;66044;53.142;17.962;2023-05-15T02:31:00;100584.45;;;14.62;51.70
77019;BME280;66044;53.142;17.962;2023-05-15T02:33:54;100588.48;;;14.62;51.67
77019;BME280;66044;53.142;17.962;2023-05-15T02:36:29;100592.16;;;14.64;51.78
77019;BME280;66044;53.142;17.962;2023-05-15T02:38:58;100591.80;;;14.65;51.93
77019;BME280;66044;53.142;17.962;2023-05-15T02:41:26;100589.64;;;14.65;51.89
77019;BME280;66044;53.142;17.962;2023-05-15T02:43:53;100575.03;;;14.66;51.99
77019;BME280;66044;53.142;17.962;2023-05-15T02:46:20;100538.67;;;14.67;51.84
77019;BME280;66044;53.142;17.962;2023-05-15T02:48:50;100536.34;;;14.67;51.65
77019;BME280;66044;53.142;17.962;2023-05-15T02:51:17;100564.21;;;14.66;51.37
77019;BME280;66044;53.142;17.962;2023-05-15T02:53:44;100549.95;;;14.63;51.30
77019;BME280;66044;53.142;17.962;2023-05-15T02:56:10;100548.12;;;14.61;51.23
77019;BME280;66044;53.142;17.962;2023-05-15T02:58:37;100533.13;;;14.60;51.18
77019;BME280;66044;53.142;17.962;2023-05-15T03:01:04;100545.09;;;14.60;51.35
77019;BME280;66044;53.142;17.962;2023-05-15T03:03:31;100539.99;;;14.60;51.24
77019;BME280;66044;53.142;17.962;2023-05-15T03:05:58;100547.20;;;14.61;51.19
77019;BME280;66044;53.142;17.962;2023-05-15T03:08:27;100532.80;;;14.63;51.22
77019;BME280;66044;53.142;17.962;2023-05-15T03:10:53;100530.88;;;14.64;51.57
77019;BME280;66044;53.142;17.962;2023-05-15T03:13:20;100532.14;;;14.64;51.42
77019;BME280;66044;53.142;17.962;2023-05-15T03:15:46;100515.39;;;14.65;51.40
77019;BME280;66044;53.142;17.962;2023-05-15T03:18:13;100521.03;;;14.65;51.64
77019;BME280;66044;53.142;17.962;2023-05-15T03:20:39;100511.52;;;14.66;51.60
77019;BME280;66044;53.142;17.962;2023-05-15T03:23:05;100518.95;;;14.66;51.70
77019;BME280;66044;53.142;17.962;2023-05-15T03:25:32;100512.68;;;14.64;51.48
77019;BME280;66044;53.142;17.962;2023-05-15T03:27:58;100507.17;;;14.64;51.73
77019;BME280;66044;53.142;17.962;2023-05-15T03:30:25;100502.16;;;14.64;51.68
77019;BME280;66044;53.142;17.962;2023-05-15T03:32:51;100482.64;;;14.65;51.72
77019;BME280;66044;53.142;17.962;2023-05-15T03:35:18;100496.79;;;14.65;51.59
77019;BME280;66044;53.142;17.962;2023-05-15T03:37:44;100514.20;;;14.63;51.51
77019;BME280;66044;53.142;17.962;2023-05-15T03:40:11;100505.36;;;14.62;51.66
77019;BME280;66044;53.142;17.962;2023-05-15T03:42:37;100481.55;;;14.62;51.63
77019;BME280;66044;53.142;17.962;2023-05-15T03:45:04;100477.55;;;14.62;51.65
77019;BME280;66044;53.142;17.962;2023-05-15T03:47:31;100488.61;;;14.63;51.52
77019;BME280;66044;53.142;17.962;2023-05-15T03:49:57;100483.02;;;14.61;51.44
77019;BME280;66044;53.142;17.962;2023-05-15T03:52:24;100468.03;;;14.61;51.47
77019;BME280;66044;53.142;17.962;2023-05-15T03:54:51;100465.05;;;14.62;51.36
77019;BME280;66044;53.142;17.962;2023-05-15T03:57:17;100465.46;;;14.64;51.41
77019;BME280;66044;53.142;17.962;2023-05-15T03:59:43;100493.04;;;14.64;51.56
77019;BME280;66044;53.142;17.962;2023-05-15T04:02:10;100476.30;;;14.57;51.46
77019;BME280;66044;53.142;17.962;2023-05-15T04:04:36;100487.66;;;14.57;51.62
77019;BME280;66044;53.142;17.962;2023-05-15T04:07:04;100477.64;;;14.58;51.51
77019;BME280;66044;53.142;17.962;2023-05-15T04:09:30;100461.28;;;14.60;51.46
77019;BME280;66044;53.142;17.962;2023-05-15T04:11:57;100443.77;;;14.61;51.44
77019;BME280;66044;53.142;17.962;2023-05-15T04:14:23;100478.52;;;14.61;51.46
77019;BME280;66044;53.142;17.962;2023-05-15T04:16:50;100461.27;;;14.58;51.41
77019;BME280;66044;53.142;17.962;2023-05-15T04:19:16;100466.17;;;14.57;51.38
77019;BME280;66044;53.142;17.962;2023-05-15T04:21:43;100460.48;;;14.57;51.37
77019;BME280;66044;53.142;17.962;2023-05-15T04:24:09;100460.42;;;14.58;51.35
77019;BME280;66044;53.142;17.962;2023-05-15T04:26:36;100470.16;;;14.60;51.27
77019;BME280;66044;53.142;17.962;2023-05-15T04:29:02;100466.13;;;14.62;51.27
77019;BME280;66044;53.142;17.962;2023-05-15T04:31:29;100447.57;;;14.64;51.13
77019;BME280;66044;53.142;17.962;2023-05-15T04:33:56;100474.62;;;14.67;51.11
77019;BME280;66044;53.142;17.962;2023-05-15T04:36:23;100457.87;;;14.67;51.12
77019;BME280;66044;53.142;17.962;2023-05-15T04:38:49;100474.20;;;14.69;51.18
77019;BME280;66044;53.142;17.962;2023-05-15T04:41:16;100463.27;;;14.70;51.12
77019;BME280;66044;53.142;17.962;2023-05-15T04:43:43;100453.55;;;14.71;51.04
77019;BME280;66044;53.142;17.962;2023-05-15T04:46:10;100464.08;;;14.72;51.15
77019;BME280;66044;53.142;17.962;2023-05-15T04:48:36;100468.73;;;14.73;51.12
77019;BME280;66044;53.142;17.962;2023-05-15T04:51:03;100464.55;;;14.73;51.10
77019;BME280;66044;53.142;17.962;2023-05-15T04:53:29;100474.54;;;14.75;51.00
77019;BME280;66044;53.142;17.962;2023-05-15T04:55:56;100470.55;;;14.76;51.06
77019;BME280;66044;53.142;17.962;2023-05-15T04:58:22;100466.27;;;14.79;50.98
77019;BME280;66044;53.142;17.962;2023-05-15T05:00:49;100480.80;;;14.79;50.96
77019;BME280;66044;53.142;17.962;2023-05-15T05:03:15;100452.52;;;14.78;50.98
77019;BME280;66044;53.142;17.962;2023-05-15T05:05:41;100450.92;;;14.80;51.20
77019;BME280;66044;53.142;17.962;2023-05-15T05:08:08;100459.64;;;14.84;51.06
77019;BME280;66044;53.142;17.962;2023-05-15T05:10:34;100442.11;;;14.84;51.08
77019;BME280;66044;53.142;17.962;2023-05-15T05:13:01;100448.33;;;14.86;51.04
77019;BME280;66044;53.142;17.962;2023-05-15T05:15:27;100447.95;;;14.87;51.11
77019;BME280;66044;53.142;17.962;2023-05-15T05:17:54;100445.20;;;14.89;51.01
77019;BME280;66044;53.142;17.962;2023-05-15T05:20:20;100432.08;;;14.90;51.17
77019;BME280;66044;53.142;17.962;2023-05-15T05:22:47;100449.14;;;14.92;51.16
77019;BME280;66044;53.142;17.962;2023-05-15T05:25:13;100428.38;;;14.94;51.49
77019;BME280;66044;53.142;17.962;2023-05-15T05:27:40;100454.39;;;14.97;51.29
77019;BME280;66044;53.142;17.962;2023-05-15T05:30:07;100446.27;;;14.97;51.48
77019;BME280;66044;53.142;17.962;2023-05-15T05:32:33;100434.41;;;14.99;51.55
77019;BME280;66044;53.142;17.962;2023-05-15T05:35:00;100429.27;;;15.01;51.59
77019;BME280;66044;53.142;17.962;2023-05-15T05:37:26;100425.73;;;15.01;51.97
77019;BME280;66044;53.142;17.962;2023-05-15T05:39:53;100426.41;;;15.00;52.17
77019;BME280;66044;53.142;17.962;2023-05-15T05:42:21;100451.35;;;15.00;52.49
77019;BME280;66044;53.142;17.962;2023-05-15T05:44:47;100467.09;;;14.90;52.57
77019;BME280;66044;53.142;17.962;2023-05-15T05:47:14;100453.70;;;14.79;52.65
77019;BME280;66044;53.142;17.962;2023-05-15T05:49:40;100469.44;;;14.78;53.02
77019;BME280;66044;53.142;17.962;2023-05-15T05:52:07;100444.52;;;14.81;53.44
77019;BME280;66044;53.142;17.962;2023-05-15T05:54:33;100443.22;;;14.85;53.88
77019;BME280;66044;53.142;17.962;2023-05-15T05:57:00;100454.45;;;14.87;53.73
77019;BME280;66044;53.142;17.962;2023-05-15T05:59:26;100466.14;;;14.88;53.50
77019;BME280;66044;53.142;17.962;2023-05-15T06:01:54;100463.02;;;14.91;53.82
77019;BME280;66044;53.142;17.962;2023-05-15T06:04:21;100457.08;;;14.91;53.66
77019;BME280;66044;53.142;17.962;2023-05-15T06:06:47;100455.83;;;14.95;53.53
77019;BME280;66044;53.142;17.962;2023-05-15T06:09:15;100456.64;;;14.98;53.23
77019;BME280;66044;53.142;17.962;2023-05-15T06:11:41;100451.28;;;15.00;53.83
77019;BME280;66044;53.142;17.962;2023-05-15T06:14:08;100444.92;;;15.02;53.70
77019;BME280;66044;53.142;17.962;2023-05-15T06:16:34;100443.55;;;15.03;53.49
77019;BME280;66044;53.142;17.962;2023-05-15T06:19:02;100449.73;;;15.03;53.69
77019;BME280;66044;53.142;17.962;2023-05-15T06:21:28;100452.86;;;15.01;53.76
77019;BME280;66044;53.142;17.962;2023-05-15T06:23:55;100452.34;;;15.02;54.11
77019;BME280;66044;53.142;17.962;2023-05-15T06:26:21;100444.23;;;15.04;54.25
77019;BME280;66044;53.142;17.962;2023-05-15T06:28:48;100442.52;;;15.07;54.17
77019;BME280;66044;53.142;17.962;2023-05-15T06:31:14;100443.19;;;15.10;54.24
77019;BME280;66044;53.142;17.962;2023-05-15T06:33:42;100444.59;;;15.12;54.35
77019;BME280;66044;53.142;17.962;2023-05-15T06:36:08;100447.75;;;15.11;54.66
77019;BME280;66044;53.142;17.962;2023-05-15T06:38:35;100444.19;;;15.09;54.44
77019;BME280;66044;53.142;17.962;2023-05-15T06:41:02;100442.55;;;15.08;54.62
77019;BME280;66044;53.142;17.962;2023-05-15T06:43:28;100441.09;;;15.10;54.77
77019;BME280;66044;53.142;17.962;2023-05-15T06:45:55;100438.63;;;15.06;55.15
77019;BME280;66044;53.142;17.962;2023-05-15T06:48:21;100439.55;;;15.06;55.46
77019;BME280;66044;53.142;17.962;2023-05-15T06:50:48;100435.88;;;15.08;55.56
77019;BME280;66044;53.142;17.962;2023-05-15T06:53:14;100436.99;;;15.05;55.25
77019;BME280;66044;53.142;17.962;2023-05-15T06:55:43;100438.28;;;14.99;55.47
77019;BME280;66044;53.142;17.962;2023-05-15T06:58:09;100440.33;;;14.97;55.56
77019;BME280;66044;53.142;17.962;2023-05-15T07:00:36;100436.98;;;14.95;56.05
77019;BME280;66044;53.142;17.962;2023-05-15T07:03:02;100435.68;;;14.92;56.24
77019;BME280;66044;53.142;17.962;2023-05-15T07:05:30;100424.33;;;14.88;56.54
77019;BME280;66044;53.142;17.962;2023-05-15T07:07:56;100425.95;;;14.84;56.60
77019;BME280;66044;53.142;17.962;2023-05-15T07:10:23;100418.17;;;14.76;56.93
77019;BME280;66044;53.142;17.962;2023-05-15T07:12:49;100415.23;;;14.71;57.20
77019;BME280;66044;53.142;17.962;2023-05-15T07:15:16;100411.52;;;14.68;57.67
77019;BME280;66044;53.142;17.962;2023-05-15T07:17:42;100406.33;;;14.66;57.91
77019;BME280;66044;53.142;17.962;2023-05-15T07:20:09;100403.84;;;14.65;58.17
77019;BME280;66044;53.142;17.962;2023-05-15T07:22:36;100398.81;;;14.64;58.65
77019;BME280;66044;53.142;17.962;2023-05-15T07:25:02;100389.15;;;14.64;58.67
77019;BME280;66044;53.142;17.962;2023-05-15T07:27:29;100390.38;;;14.59;58.64
77019;BME280;66044;53.142;17.962;2023-05-15T07:29:56;100383.84;;;14.52;59.11
77019;BME280;66044;53.142;17.962;2023-05-15T07:32:22;100380.82;;;14.48;59.70
77019;BME280;66044;53.142;17.962;2023-05-15T07:34:50;100372.69;;;14.50;60.04
77019;BME280;66044;53.142;17.962;2023-05-15T07:37:17;100371.45;;;14.55;60.34
77019;BME280;66044;53.142;17.962;2023-05-15T07:39:43;100364.62;;;14.61;60.25
77019;BME280;66044;53.142;17.962;2023-05-15T07:42:10;100359.52;;;14.66;60.41
77019;BME280;66044;53.142;17.962;2023-05-15T07:44:36;100358.94;;;14.73;60.30
77019;BME280;66044;53.142;17.962;2023-05-15T07:47:03;100358.10;;;14.78;60.55
77019;BME280;66044;53.142;17.962;2023-05-15T07:49:32;100356.06;;;14.86;60.68
77019;BME280;66044;53.142;17.962;2023-05-15T07:51:59;100353.39;;;14.92;60.99
77019;BME280;66044;53.142;17.962;2023-05-15T07:54:26;100350.66;;;15.00;61.06
77019;BME280;66044;53.142;17.962;2023-05-15T07:56:52;100345.02;;;15.06;60.75
77019;BME280;66044;53.142;17.962;2023-05-15T07:59:19;100338.98;;;15.10;60.99
77019;BME280;66044;53.142;17.962;2023-05-15T08:01:46;100328.79;;;15.11;61.10
77019;BME280;66044;53.142;17.962;2023-05-15T08:04:13;100325.68;;;15.04;61.40
77019;BME280;66044;53.142;17.962;2023-05-15T08:06:39;100318.36;;;15.01;61.71
77019;BME280;66044;53.142;17.962;2023-05-15T08:09:07;100310.92;;;14.99;61.78
77019;BME280;66044;53.142;17.962;2023-05-15T08:11:35;100309.14;;;14.99;61.90
77019;BME280;66044;53.142;17.962;2023-05-15T08:14:01;100307.64;;;15.02;61.89
77019;BME280;66044;53.142;17.962;2023-05-15T08:16:28;100304.92;;;15.01;61.91
77019;BME280;66044;53.142;17.962;2023-05-15T08:18:54;100301.16;;;15.02;61.85
77019;BME280;66044;53.142;17.962;2023-05-15T08:21:26;100295.98;;;15.04;61.93
77019;BME280;66044;53.142;17.962;2023-05-15T08:23:52;100295.11;;;15.01;61.91
77019;BME280;66044;53.142;17.962;2023-05-15T08:26:19;100292.83;;;14.99;61.67
77019;BME280;66044;53.142;17.962;2023-05-15T08:28:46;100284.05;;;14.96;61.66
77019;BME280;66044;53.142;17.962;2023-05-15T08:31:12;100279.38;;;14.98;61.58
77019;BME280;66044;53.142;17.962;2023-05-15T08:33:39;100275.34;;;15.02;61.35
77019;BME280;66044;53.142;17.962;2023-05-15T08:36:06;100271.08;;;15.01;61.33
77019;BME280;66044;53.142;17.962;2023-05-15T08:38:33;100263.41;;;15.00;61.47
77019;BME280;66044;53.142;17.962;2023-05-15T08:41:06;100265.05;;;15.01;61.33
77019;BME280;66044;53.142;17.962;2023-05-15T08:43:36;100257.32;;;14.96;61.44
77019;BME280;66044;53.142;17.962;2023-05-15T08:46:07;100259.20;;;14.93;61.62
77019;BME280;66044;53.142;17.962;2023-05-15T08:48:36;100253.99;;;14.92;61.76
77019;BME280;66044;53.142;17.962;2023-05-15T08:51:08;100252.14;;;14.91;61.64
77019;BME280;66044;53.142;17.962;2023-05-15T08:53:35;100250.84;;;14.92;61.93
77019;BME280;66044;53.142;17.962;2023-05-15T08:56:02;100245.27;;;14.91;61.95
77019;BME280;66044;53.142;17.962;2023-05-15T08:58:30;100244.33;;;14.91;61.87
77019;BME280;66044;53.142;17.962;2023-05-15T09:00:57;100242.13;;;14.87;62.19
77019;BME280;66044;53.142;17.962;2023-05-15T09:03:24;100240.67;;;14.84;62.09
77019;BME280;66044;53.142;17.962;2023-05-15T09:05:51;100238.69;;;14.80;62.35
77019;BME280;66044;53.142;17.962;2023-05-15T09:08:20;100242.42;;;14.77;62.58
77019;BME280;66044;53.142;17.962;2023-05-15T09:10:48;100242.62;;;14.74;62.51
77019;BME280;66044;53.142;17.962;2023-05-15T09:13:15;100238.60;;;14.73;62.67
77019;BME280;66044;53.142;17.962;2023-05-15T09:15:44;100235.11;;;14.72;62.69
77019;BME280;66044;53.142;17.962;2023-05-15T09:18:12;100231.73;;;14.69;62.84
77019;BME280;66044;53.142;17.962;2023-05-15T09:20:40;100227.89;;;14.70;62.64
77019;BME280;66044;53.142;17.962;2023-05-15T09:23:21;100226.33;;;14.75;62.61
77019;BME280;66044;53.142;17.962;2023-05-15T09:25:49;100227.66;;;14.81;62.32
77019;BME280;66044;53.142;17.962;2023-05-15T09:28:29;100233.58;;;14.84;61.94
77019;BME280;66044;53.142;17.962;2023-05-15T09:31:00;100223.57;;;14.82;61.76
77019;BME280;66044;53.142;17.962;2023-05-15T09:33:32;100221.02;;;14.82;62.07
77019;BME280;66044;53.142;17.962;2023-05-15T09:36:00;100227.55;;;14.78;62.10
77019;BME280;66044;53.142;17.962;2023-05-15T09:38:27;100226.67;;;14.66;62.14
77019;BME280;66044;53.142;17.962;2023-05-15T09:41:01;100221.09;;;14.60;62.35
77019;BME280;66044;53.142;17.962;2023-05-15T09:43:32;100222.48;;;14.60;62.59
77019;BME280;66044;53.142;17.962;2023-05-15T09:45:59;100221.37;;;14.57;62.61
77019;BME280;66044;53.142;17.962;2023-05-15T09:48:27;100220.17;;;14.55;62.70
77019;BME280;66044;53.142;17.962;2023-05-15T09:50:53;100217.77;;;14.50;63.10
77019;BME280;66044;53.142;17.962;2023-05-15T09:53:21;100216.98;;;14.43;63.45
77019;BME280;66044;53.142;17.962;2023-05-15T09:55:49;100213.19;;;14.43;63.47
77019;BME280;66044;53.142;17.962;2023-05-15T09:58:17;100212.25;;;14.39;63.73
77019;BME280;66044;53.142;17.962;2023-05-15T10:00:45;100211.46;;;14.33;64.30
77019;BME280;66044;53.142;17.962;2023-05-15T10:03:13;100210.18;;;14.31;64.30
77019;BME280;66044;53.142;17.962;2023-05-15T10:05:40;100209.40;;;14.30;64.37
77019;BME280;66044;53.142;17.962;2023-05-15T10:08:07;100203.65;;;14.28;64.66
77019;BME280;66044;53.142;17.962;2023-05-15T10:10:33;100201.19;;;14.27;64.53
77019;BME280;66044;53.142;17.962;2023-05-15T10:13:00;100200.10;;;14.28;64.79
77019;BME280;66044;53.142;17.962;2023-05-15T10:15:30;100198.33;;;14.28;64.74
77019;BME280;66044;53.142;17.962;2023-05-15T10:17:58;100193.39;;;14.29;64.86
77019;BME280;66044;53.142;17.962;2023-05-15T10:20:25;100194.16;;;14.29;65.15
77019;BME280;66044;53.142;17.962;2023-05-15T10:22:53;100193.44;;;14.31;65.62
77019;BME280;66044;53.142;17.962;2023-05-15T10:25:40;100187.48;;;14.36;65.45
77019;BME280;66044;53.142;17.962;2023-05-15T10:28:09;100185.56;;;14.44;65.54
77019;BME280;66044;53.142;17.962;2023-05-15T10:30:37;100185.30;;;14.47;65.38
77019;BME280;66044;53.142;17.962;2023-05-15T10:33:05;100186.13;;;14.46;65.49
77019;BME280;66044;53.142;17.962;2023-05-15T10:35:33;100181.22;;;14.48;65.64
77019;BME280;66044;53.142;17.962;2023-05-15T10:38:03;100174.73;;;14.54;65.54
77019;BME280;66044;53.142;17.962;2023-05-15T10:40:29;100179.67;;;14.59;65.57
77019;BME280;66044;53.142;17.962;2023-05-15T10:42:59;100172.77;;;14.56;65.73
77019;BME280;66044;53.142;17.962;2023-05-15T10:45:28;100174.98;;;14.54;65.91
77019;BME280;66044;53.142;17.962;2023-05-15T10:47:56;100175.00;;;14.51;66.08
77019;BME280;66044;53.142;17.962;2023-05-15T10:50:25;100169.76;;;14.46;66.22
77019;BME280;66044;53.142;17.962;2023-05-15T10:52:54;100169.83;;;14.46;66.24
77019;BME280;66044;53.142;17.962;2023-05-15T10:55:21;100169.66;;;14.50;66.25
77019;BME280;66044;53.142;17.962;2023-05-15T10:57:48;100164.52;;;14.53;66.36
77019;BME280;66044;53.142;17.962;2023-05-15T11:02:48;100167.77;;;14.48;66.37
77019;BME280;66044;53.142;17.962;2023-05-15T11:05:14;100163.75;;;14.38;66.75
77019;BME280;66044;53.142;17.962;2023-05-15T11:07:41;100168.56;;;14.34;66.97
77019;BME280;66044;53.142;17.962;2023-05-15T11:13:00;100161.60;;;14.34;66.99
77019;BME280;66044;53.142;17.962;2023-05-15T11:15:40;100157.76;;;14.30;67.24
77019;BME280;66044;53.142;17.962;2023-05-15T11:18:07;100154.55;;;14.27;67.42
77019;BME280;66044;53.142;17.962;2023-05-15T11:20:39;100153.56;;;14.24;67.56
77019;BME280;66044;53.142;17.962;2023-05-15T11:23:07;100156.86;;;14.22;67.63
77019;BME280;66044;53.142;17.962;2023-05-15T11:25:34;100148.41;;;14.20;67.41
77019;BME280;66044;53.142;17.962;2023-05-15T11:28:02;100145.92;;;14.14;67.47
77019;BME280;66044;53.142;17.962;2023-05-15T11:30:50;100146.07;;;14.09;67.59
77019;BME280;66044;53.142;17.962;2023-05-15T11:33:19;100139.35;;;13.99;67.97
77019;BME280;66044;53.142;17.962;2023-05-15T11:35:46;100133.48;;;13.93;68.37
77019;BME280;66044;53.142;17.962;2023-05-15T11:38:24;100131.81;;;13.91;68.38
77019;BME280;66044;53.142;17.962;2023-05-15T11:40:54;100128.02;;;13.90;68.57
77019;BME280;66044;53.142;17.962;2023-05-15T11:46:11;100124.65;;;13.77;68.66
77019;BME280;66044;53.142;17.962;2023-05-15T11:48:41;100121.69;;;13.67;69.20
77019;BME280;66044;53.142;17.962;2023-05-15T11:51:21;100117.52;;;13.62;69.04
77019;BME280;66044;53.142;17.962;2023-05-15T11:53:49;100109.92;;;13.60;69.25
77019;BME280;66044;53.142;17.962;2023-05-15T11:56:23;100111.25;;;13.56;69.59
77019;BME280;66044;53.142;17.962;2023-05-15T11:58:55;100110.19;;;13.52;69.88
77019;BME280;66044;53.142;17.962;2023-05-15T12:01:22;100111.33;;;13.51;69.99
77019;BME280;66044;53.142;17.962;2023-05-15T12:03:49;100107.06;;;13.50;70.10
77019;BME280;66044;53.142;17.962;2023-05-15T12:06:16;100103.27;;;13.50;70.34
77019;BME280;66044;53.142;17.962;2023-05-15T12:08:43;100100.00;;;13.51;70.17
77019;BME280;66044;53.142;17.962;2023-05-15T12:11:15;100099.86;;;13.52;70.39
77019;BME280;66044;53.142;17.962;2023-05-15T12:13:41;100094.14;;;13.51;70.34
77019;BME280;66044;53.142;17.962;2023-05-15T12:16:08;100090.89;;;13.50;70.54
77019;BME280;66044;53.142;17.962;2023-05-15T12:18:34;100088.81;;;13.55;70.77
77019;BME280;66044;53.142;17.962;2023-05-15T12:21:01;100083.52;;;13.63;70.77
77019;BME280;66044;53.142;17.962;2023-05-15T12:23:30;100084.15;;;13.68;70.45
77019;BME280;66044;53.142;17.962;2023-05-15T12:26:00;100084.27;;;13.70;70.60
77019;BME280;66044;53.142;17.962;2023-05-15T12:28:27;100081.02;;;13.74;71.17
77019;BME280;66044;53.142;17.962;2023-05-15T12:30:55;100075.57;;;13.76;70.72
77019;BME280;66044;53.142;17.962;2023-05-15T12:33:22;100071.09;;;13.76;70.98
77019;BME280;66044;53.142;17.962;2023-05-15T12:35:53;100069.92;;;13.76;70.92
77019;BME280;66044;53.142;17.962;2023-05-15T12:38:21;100065.04;;;13.78;70.80
77019;BME280;66044;53.142;17.962;2023-05-15T12:40:50;100062.34;;;13.83;71.00
77019;BME280;66044;53.142;17.962;2023-05-15T12:43:19;100058.56;;;13.88;71.00
77019;BME280;66044;53.142;17.962;2023-05-15T12:45:45;100054.73;;;13.94;71.03
77019;BME280;66044;53.142;17.962;2023-05-15T12:48:13;100054.31;;;13.97;70.85
77019;BME280;66044;53.142;17.962;2023-05-15T12:50:43;100050.16;;;13.98;71.20
77019;BME280;66044;53.142;17.962;2023-05-15T12:53:13;100048.26;;;14.01;71.17
77019;BME280;66044;53.142;17.962;2023-05-15T12:55:42;100046.60;;;14.08;71.13
77019;BME280;66044;53.142;17.962;2023-05-15T12:58:11;100041.72;;;14.12;70.93